createdAt,value
2022-11-22T00:00:03.508Z,0
2022-11-22T00:09:40.296Z,0
2022-11-22T00:19:16.342Z,0
2022-11-22T00:28:52.733Z,0
2022-11-22T00:38:29.167Z,0
2022-11-22T00:48:05.281Z,0
2022-11-22T00:57:42.066Z,0
2022-11-22T01:07:19.190Z,0
2022-11-22T01:16:55.700Z,0
2022-11-22T01:26:32.141Z,0
2022-11-22T01:36:08.267Z,0
2022-11-22T01:45:44.664Z,0
2022-11-22T01:55:21.279Z,0
2022-11-22T02:04:57.780Z,0
2022-11-22T02:14:34.192Z,0
2022-11-22T02:24:11.019Z,0
2022-11-22T02:33:47.717Z,0
2022-11-22T02:43:24.397Z,0
2022-11-22T02:53:00.919Z,0
2022-11-22T03:02:37.688Z,0
2022-11-22T03:12:14.872Z,0
2022-11-22T03:21:51.612Z,0
2022-11-22T03:31:28.367Z,0
2022-11-22T03:41:04.895Z,0
2022-11-22T03:50:41.356Z,0
2022-11-22T04:00:17.874Z,0
2022-11-22T04:19:31.753Z,0
2022-11-22T04:29:09.936Z,0
2022-11-22T04:38:44.971Z,0
2022-11-22T04:48:21.831Z,0
2022-11-22T04:58:00.126Z,0
2022-11-22T05:07:35.119Z,0
2022-11-22T05:17:13.296Z,0
2022-11-22T05:26:47.983Z,0
2022-11-22T05:36:24.587Z,0
2022-11-22T05:46:01.747Z,0
2022-11-22T05:55:38.448Z,0
2022-11-22T06:05:15.342Z,0
2022-11-22T06:14:52.204Z,1.67
2022-11-22T06:24:29.116Z,5
2022-11-22T06:43:48.200Z,34.17
2022-11-22T07:02:56.928Z,133.33
2022-11-22T07:12:34.219Z,165.83
2022-11-22T07:22:11.042Z,247.5
2022-11-22T07:31:48.087Z,316.67
2022-11-22T07:41:25.172Z,295.83
2022-11-22T07:51:01.365Z,261.67
2022-11-22T08:00:38.962Z,450
2022-11-22T08:10:16.523Z,713.33
2022-11-22T08:19:54.262Z,691.67
2022-11-22T08:29:31.579Z,770.83
2022-11-22T08:39:08.863Z,520
2022-11-22T08:48:45.931Z,520
2022-11-22T08:58:22.644Z,584.17
2022-11-22T09:08:25.445Z,710.83
2022-11-22T09:17:37.147Z,1011.67
2022-11-22T09:27:14.718Z,1541.67
2022-11-22T09:36:52.358Z,1880
2022-11-22T09:46:30.035Z,2400.83
2022-11-22T09:56:07.754Z,2218.33
2022-11-22T10:05:44.677Z,1728.33
2022-11-22T10:15:21.801Z,1561.67
2022-11-22T10:24:59.126Z,2446.67
2022-11-22T10:34:37.438Z,3325.83
2022-11-22T10:44:15.453Z,3561.67
2022-11-22T10:53:56.522Z,4907.5
2022-11-22T11:03:33.409Z,5996.67
2022-11-22T11:13:11.217Z,4397.5
2022-11-22T11:32:25.101Z,5908.33
2022-11-22T11:42:02.293Z,5403.33
2022-11-22T11:51:41.144Z,5725.83
2022-11-22T12:01:18.303Z,4885
2022-11-22T12:10:55.303Z,5202.5
2022-11-22T12:20:33.332Z,5661.67
2022-11-22T12:30:10.926Z,5920.83
2022-11-22T12:39:47.694Z,5509.17
2022-11-22T12:49:25.084Z,6426.67
2022-11-22T12:59:04.901Z,13795.83
2022-11-22T13:08:53.937Z,6440.83
2022-11-22T13:18:20.879Z,2674.17
2022-11-22T13:27:56.221Z,3132.5
2022-11-22T13:37:36.069Z,5373.33
2022-11-22T13:56:49.777Z,5831.67
2022-11-22T14:06:24.836Z,2185.83
2022-11-22T14:15:59.707Z,1662.5
2022-11-22T14:25:34.068Z,816.67
2022-11-22T14:35:09.522Z,915.83
2022-11-22T14:44:45.827Z,638.33
2022-11-22T14:54:21.538Z,289.17
2022-11-22T15:09:08.947Z,120.83
2022-11-22T15:13:33.285Z,64.17
2022-11-22T16:01:34.648Z,0.83
2022-11-22T16:11:10.909Z,0
2022-11-22T16:30:23.837Z,0
2022-11-22T16:39:58.880Z,0
2022-11-22T16:49:35.121Z,0
2022-11-22T16:59:12.679Z,0
2022-11-22T17:08:47.498Z,0
2022-11-22T17:28:00.109Z,0
2022-11-22T17:37:36.381Z,0
2022-11-22T17:47:12.783Z,0
2022-11-22T17:56:49.530Z,0
2022-11-22T18:06:26.690Z,0
2022-11-22T18:16:03.985Z,0
2022-11-22T18:25:39.901Z,0
2022-11-22T18:35:16.694Z,0
2022-11-22T18:44:54.493Z,0.83
2022-11-22T18:54:30.581Z,0
2022-11-22T19:04:07.551Z,0
2022-11-22T19:13:42.873Z,0
2022-11-22T19:23:20.418Z,0
2022-11-22T19:42:32.744Z,0
2022-11-22T20:01:45.147Z,0
2022-11-22T20:11:23.165Z,0
2022-11-22T20:20:59.362Z,0
2022-11-22T20:30:36.186Z,0
2022-11-22T20:40:11.128Z,0
2022-11-22T20:49:48.173Z,0
2022-11-22T20:59:26.095Z,0
2022-11-22T21:18:40.328Z,0
2022-11-22T21:28:15.886Z,0
2022-11-22T21:37:54.058Z,0
2022-11-22T21:57:05.894Z,0
2022-11-22T22:06:46.037Z,0.83
2022-11-22T22:16:19.309Z,0
2022-11-22T22:25:55.811Z,0
2022-11-22T22:35:32.329Z,0
2022-11-22T22:54:46.135Z,0
2022-11-22T23:04:23.430Z,0
2022-11-22T23:14:00.241Z,0
2022-11-22T23:23:38.216Z,0
2022-11-22T23:33:16.432Z,0
2022-11-22T23:42:52.973Z,0
2022-11-22T23:52:30.011Z,0
